sensor_id;sensor_type;location;lat;lon;timestamp;P1;durP1;ratioP1;P2;durP2;ratioP2
49840;SDS011;35738;49.890;5.930;2023-09-08T00:02:03;7.50;;;5.07;;
49840;SDS011;35738;49.890;5.930;2023-09-08T00:04:29;5.50;;;5.00;;
49840;SDS011;35738;49.890;5.930;2023-09-08T00:06:56;6.72;;;4.95;;
49840;SDS011;35738;49.890;5.930;2023-09-08T00:09:23;5.65;;;4.60;;
49840;SDS011;35738;49.890;5.930;2023-09-08T00:11:49;4.95;;;4.55;;
49840;SDS011;35738;49.890;5.930;2023-09-08T00:14:15;5.32;;;4.82;;
49840;SDS011;35738;49.890;5.930;2023-09-08T00:16:42;5.20;;;4.70;;
49840;SDS011;35738;49.890;5.930;2023-09-08T00:19:10;6.05;;;4.88;;
49840;SDS011;35738;49.890;5.930;2023-09-08T00:21:36;5.95;;;4.40;;
49840;SDS011;35738;49.890;5.930;2023-09-08T00:24:06;5.35;;;4.68;;
49840;SDS011;35738;49.890;5.930;2023-09-08T00:26:32;6.00;;;4.75;;
49840;SDS011;35738;49.890;5.930;2023-09-08T00:29:00;5.70;;;4.95;;
49840;SDS011;35738;49.890;5.930;2023-09-08T00:31:26;5.35;;;4.85;;
49840;SDS011;35738;49.890;5.930;2023-09-08T00:33:53;7.32;;;5.00;;
49840;SDS011;35738;49.890;5.930;2023-09-08T00:36:19;5.82;;;4.95;;
49840;SDS011;35738;49.890;5.930;2023-09-08T00:38:46;6.95;;;5.13;;
49840;SDS011;35738;49.890;5.930;2023-09-08T00:41:12;5.00;;;4.50;;
49840;SDS011;35738;49.890;5.930;2023-09-08T00:43:38;5.70;;;5.20;;
49840;SDS011;35738;49.890;5.930;2023-09-08T00:46:05;6.05;;;4.97;;
49840;SDS011;35738;49.890;5.930;2023-09-08T00:48:32;7.15;;;5.07;;
49840;SDS011;35738;49.890;5.930;2023-09-08T00:51:01;7.40;;;5.05;;
49840;SDS011;35738;49.890;5.930;2023-09-08T00:53:27;6.10;;;4.70;;
49840;SDS011;35738;49.890;5.930;2023-09-08T00:55:54;6.25;;;5.38;;
49840;SDS011;35738;49.890;5.930;2023-09-08T00:58:22;6.43;;;4.60;;
49840;SDS011;35738;49.890;5.930;2023-09-08T01:00:48;6.55;;;5.10;;
49840;SDS011;35738;49.890;5.930;2023-09-08T01:03:15;6.57;;;5.00;;
49840;SDS011;35738;49.890;5.930;2023-09-08T01:05:41;6.65;;;4.95;;
49840;SDS011;35738;49.890;5.930;2023-09-08T01:08:09;5.07;;;4.55;;
49840;SDS011;35738;49.890;5.930;2023-09-08T01:10:36;5.63;;;5.13;;
49840;SDS011;35738;49.890;5.930;2023-09-08T01:13:03;8.02;;;5.10;;
49840;SDS011;35738;49.890;5.930;2023-09-08T01:15:30;5.70;;;5.03;;
49840;SDS011;35738;49.890;5.930;2023-09-08T01:17:56;7.30;;;5.28;;
49840;SDS011;35738;49.890;5.930;2023-09-08T01:20:24;7.60;;;5.28;;
49840;SDS011;35738;49.890;5.930;2023-09-08T01:26:01;6.10;;;5.10;;
49840;SDS011;35738;49.890;5.930;2023-09-08T01:28:33;6.97;;;4.72;;
49840;SDS011;35738;49.890;5.930;2023-09-08T01:31:01;7.15;;;5.35;;
49840;SDS011;35738;49.890;5.930;2023-09-08T01:33:27;5.43;;;4.75;;
49840;SDS011;35738;49.890;5.930;2023-09-08T01:35:54;5.70;;;5.20;;
49840;SDS011;35738;49.890;5.930;2023-09-08T01:38:21;6.90;;;5.28;;
49840;SDS011;35738;49.890;5.930;2023-09-08T01:40:48;6.13;;;5.53;;
49840;SDS011;35738;49.890;5.930;2023-09-08T01:43:14;5.55;;;5.03;;
49840;SDS011;35738;49.890;5.930;2023-09-08T01:45:40;8.00;;;4.85;;
49840;SDS011;35738;49.890;5.930;2023-09-08T01:48:07;7.82;;;4.95;;
49840;SDS011;35738;49.890;5.930;2023-09-08T01:50:33;6.72;;;5.35;;
49840;SDS011;35738;49.890;5.930;2023-09-08T01:53:00;6.70;;;4.93;;
49840;SDS011;35738;49.890;5.930;2023-09-08T01:55:26;7.32;;;5.47;;
49840;SDS011;35738;49.890;5.930;2023-09-08T01:57:53;5.93;;;5.40;;
49840;SDS011;35738;49.890;5.930;2023-09-08T02:00:19;5.60;;;4.97;;
49840;SDS011;35738;49.890;5.930;2023-09-08T02:02:46;6.00;;;4.88;;
49840;SDS011;35738;49.890;5.930;2023-09-08T02:05:12;6.38;;;5.35;;
49840;SDS011;35738;49.890;5.930;2023-09-08T02:07:39;7.13;;;5.55;;
49840;SDS011;35738;49.890;5.930;2023-09-08T02:10:05;6.03;;;5.25;;
49840;SDS011;35738;49.890;5.930;2023-09-08T02:12:32;6.72;;;5.22;;
49840;SDS011;35738;49.890;5.930;2023-09-08T02:14:58;5.88;;;5.10;;
49840;SDS011;35738;49.890;5.930;2023-09-08T02:17:26;6.65;;;5.18;;
49840;SDS011;35738;49.890;5.930;2023-09-08T02:19:52;6.30;;;5.03;;
49840;SDS011;35738;49.890;5.930;2023-09-08T02:22:19;6.05;;;5.30;;
49840;SDS011;35738;49.890;5.930;2023-09-08T02:24:45;6.10;;;5.20;;
49840;SDS011;35738;49.890;5.930;2023-09-08T02:27:12;6.90;;;5.00;;
49840;SDS011;35738;49.890;5.930;2023-09-08T02:29:38;9.05;;;5.03;;
49840;SDS011;35738;49.890;5.930;2023-09-08T02:32:04;7.75;;;5.03;;
49840;SDS011;35738;49.890;5.930;2023-09-08T02:34:33;5.05;;;4.65;;
49840;SDS011;35738;49.890;5.930;2023-09-08T02:37:02;6.88;;;5.10;;
49840;SDS011;35738;49.890;5.930;2023-09-08T02:39:29;6.65;;;5.35;;
49840;SDS011;35738;49.890;5.930;2023-09-08T02:41:56;5.57;;;4.95;;
49840;SDS011;35738;49.890;5.930;2023-09-08T02:44:22;5.15;;;4.65;;
49840;SDS011;35738;49.890;5.930;2023-09-08T02:46:48;6.43;;;5.03;;
49840;SDS011;35738;49.890;5.930;2023-09-08T02:49:15;5.32;;;4.85;;
49840;SDS011;35738;49.890;5.930;2023-09-08T02:51:41;6.40;;;4.97;;
49840;SDS011;35738;49.890;5.930;2023-09-08T02:54:08;5.57;;;4.88;;
49840;SDS011;35738;49.890;5.930;2023-09-08T02:56:34;6.97;;;5.05;;
49840;SDS011;35738;49.890;5.930;2023-09-08T02:59:01;6.10;;;4.72;;
49840;SDS011;35738;49.890;5.930;2023-09-08T03:01:27;6.78;;;4.97;;
49840;SDS011;35738;49.890;5.930;2023-09-08T03:03:54;6.78;;;5.10;;
49840;SDS011;35738;49.890;5.930;2023-09-08T03:06:20;5.55;;;4.57;;
49840;SDS011;35738;49.890;5.930;2023-09-08T03:08:47;5.53;;;4.85;;
49840;SDS011;35738;49.890;5.930;2023-09-08T03:11:13;5.28;;;4.78;;
49840;SDS011;35738;49.890;5.930;2023-09-08T03:13:40;4.90;;;4.50;;
49840;SDS011;35738;49.890;5.930;2023-09-08T03:16:07;5.15;;;4.65;;
49840;SDS011;35738;49.890;5.930;2023-09-08T03:18:34;5.82;;;4.53;;
49840;SDS011;35738;49.890;5.930;2023-09-08T03:21:03;6.28;;;4.75;;
49840;SDS011;35738;49.890;5.930;2023-09-08T03:23:39;5.88;;;4.82;;
49840;SDS011;35738;49.890;5.930;2023-09-08T03:26:06;6.78;;;4.55;;
49840;SDS011;35738;49.890;5.930;2023-09-08T03:28:33;6.43;;;5.28;;
49840;SDS011;35738;49.890;5.930;2023-09-08T03:31:01;6.40;;;4.90;;
49840;SDS011;35738;49.890;5.930;2023-09-08T03:33:28;7.80;;;4.70;;
49840;SDS011;35738;49.890;5.930;2023-09-08T03:35:55;9.10;;;4.93;;
49840;SDS011;35738;49.890;5.930;2023-09-08T03:38:21;5.95;;;4.82;;
49840;SDS011;35738;49.890;5.930;2023-09-08T03:40:49;6.35;;;4.97;;
49840;SDS011;35738;49.890;5.930;2023-09-08T03:43:15;5.72;;;4.50;;
49840;SDS011;35738;49.890;5.930;2023-09-08T03:45:42;7.43;;;5.00;;
49840;SDS011;35738;49.890;5.930;2023-09-08T03:48:08;8.00;;;5.18;;
49840;SDS011;35738;49.890;5.930;2023-09-08T03:50:35;5.93;;;5.30;;
49840;SDS011;35738;49.890;5.930;2023-09-08T03:53:02;7.43;;;5.22;;
49840;SDS011;35738;49.890;5.930;2023-09-08T03:55:29;7.03;;;5.30;;
49840;SDS011;35738;49.890;5.930;2023-09-08T03:57:55;6.53;;;5.65;;
49840;SDS011;35738;49.890;5.930;2023-09-08T04:00:21;6.80;;;5.63;;
49840;SDS011;35738;49.890;5.930;2023-09-08T04:02:48;8.60;;;6.22;;
49840;SDS011;35738;49.890;5.930;2023-09-08T04:05:18;7.75;;;5.80;;
49840;SDS011;35738;49.890;5.930;2023-09-08T04:07:45;7.18;;;5.97;;
49840;SDS011;35738;49.890;5.930;2023-09-08T04:10:12;7.32;;;5.90;;
49840;SDS011;35738;49.890;5.930;2023-09-08T04:12:41;5.57;;;5.07;;
49840;SDS011;35738;49.890;5.930;2023-09-08T04:15:08;6.22;;;5.40;;
49840;SDS011;35738;49.890;5.930;2023-09-08T04:17:35;5.55;;;5.05;;
49840;SDS011;35738;49.890;5.930;2023-09-08T04:20:03;7.25;;;5.07;;
49840;SDS011;35738;49.890;5.930;2023-09-08T04:22:31;5.50;;;5.00;;
49840;SDS011;35738;49.890;5.930;2023-09-08T04:24:58;5.78;;;4.85;;
49840;SDS011;35738;49.890;5.930;2023-09-08T04:27:25;5.85;;;5.25;;
49840;SDS011;35738;49.890;5.930;2023-09-08T04:29:51;5.60;;;4.85;;
49840;SDS011;35738;49.890;5.930;2023-09-08T04:32:18;6.70;;;4.40;;
49840;SDS011;35738;49.890;5.930;2023-09-08T04:34:44;5.78;;;5.03;;
49840;SDS011;35738;49.890;5.930;2023-09-08T04:37:11;6.30;;;4.80;;
49840;SDS011;35738;49.890;5.930;2023-09-08T04:39:37;5.38;;;4.88;;
49840;SDS011;35738;49.890;5.930;2023-09-08T04:42:03;6.30;;;5.20;;
49840;SDS011;35738;49.890;5.930;2023-09-08T04:44:30;5.70;;;5.00;;
49840;SDS011;35738;49.890;5.930;2023-09-08T04:46:57;5.95;;;5.20;;
49840;SDS011;35738;49.890;5.930;2023-09-08T04:49:23;7.15;;;5.53;;
49840;SDS011;35738;49.890;5.930;2023-09-08T04:51:50;6.75;;;5.03;;
49840;SDS011;35738;49.890;5.930;2023-09-08T04:54:16;5.47;;;4.97;;
49840;SDS011;35738;49.890;5.930;2023-09-08T04:56:43;5.68;;;5.00;;
49840;SDS011;35738;49.890;5.930;2023-09-08T04:59:09;9.02;;;5.30;;
49840;SDS011;35738;49.890;5.930;2023-09-08T05:01:35;8.18;;;4.75;;
49840;SDS011;35738;49.890;5.930;2023-09-08T05:04:03;7.97;;;5.30;;
49840;SDS011;35738;49.890;5.930;2023-09-08T05:06:30;7.88;;;5.35;;
49840;SDS011;35738;49.890;5.930;2023-09-08T05:08:58;7.07;;;5.00;;
49840;SDS011;35738;49.890;5.930;2023-09-08T05:11:26;5.88;;;5.10;;
49840;SDS011;35738;49.890;5.930;2023-09-08T05:13:53;5.75;;;5.18;;
49840;SDS011;35738;49.890;5.930;2023-09-08T05:16:20;6.38;;;5.20;;
49840;SDS011;35738;49.890;5.930;2023-09-08T05:19:02;5.55;;;5.00;;
49840;SDS011;35738;49.890;5.930;2023-09-08T05:21:30;6.63;;;4.97;;
49840;SDS011;35738;49.890;5.930;2023-09-08T05:24:00;5.70;;;5.05;;
49840;SDS011;35738;49.890;5.930;2023-09-08T05:26:27;5.50;;;5.00;;
49840;SDS011;35738;49.890;5.930;2023-09-08T05:28:53;6.85;;;4.68;;
49840;SDS011;35738;49.890;5.930;2023-09-08T05:31:19;6.13;;;5.05;;
49840;SDS011;35738;49.890;5.930;2023-09-08T05:33:46;7.70;;;5.13;;
49840;SDS011;35738;49.890;5.930;2023-09-08T05:36:12;5.95;;;5.35;;
49840;SDS011;35738;49.890;5.930;2023-09-08T05:38:41;5.93;;;5.25;;
49840;SDS011;35738;49.890;5.930;2023-09-08T05:41:07;8.65;;;5.05;;
49840;SDS011;35738;49.890;5.930;2023-09-08T05:43:34;6.65;;;5.35;;
49840;SDS011;35738;49.890;5.930;2023-09-08T05:46:01;7.07;;;5.00;;
49840;SDS011;35738;49.890;5.930;2023-09-08T05:48:27;6.55;;;5.28;;
49840;SDS011;35738;49.890;5.930;2023-09-08T05:50:54;9.20;;;5.18;;
49840;SDS011;35738;49.890;5.930;2023-09-08T05:53:20;7.15;;;5.13;;
49840;SDS011;35738;49.890;5.930;2023-09-08T05:55:47;5.60;;;5.00;;
49840;SDS011;35738;49.890;5.930;2023-09-08T05:58:13;7.57;;;5.40;;
49840;SDS011;35738;49.890;5.930;2023-09-08T06:00:40;6.90;;;5.05;;
49840;SDS011;35738;49.890;5.930;2023-09-08T06:03:07;6.55;;;4.78;;
49840;SDS011;35738;49.890;5.930;2023-09-08T06:05:34;6.80;;;5.00;;
49840;SDS011;35738;49.890;5.930;2023-09-08T06:08:00;6.00;;;5.20;;
49840;SDS011;35738;49.890;5.930;2023-09-08T06:10:33;5.53;;;4.88;;
49840;SDS011;35738;49.890;5.930;2023-09-08T06:12:59;6.00;;;5.07;;
49840;SDS011;35738;49.890;5.930;2023-09-08T06:15:26;6.88;;;5.22;;
49840;SDS011;35738;49.890;5.930;2023-09-08T06:17:52;5.35;;;4.88;;
49840;SDS011;35738;49.890;5.930;2023-09-08T06:20:19;5.53;;;5.00;;
49840;SDS011;35738;49.890;5.930;2023-09-08T06:22:45;5.10;;;4.53;;
49840;SDS011;35738;49.890;5.930;2023-09-08T06:25:11;7.30;;;5.40;;
49840;SDS011;35738;49.890;5.930;2023-09-08T06:27:38;5.40;;;4.90;;
49840;SDS011;35738;49.890;5.930;2023-09-08T06:30:05;5.13;;;4.63;;
49840;SDS011;35738;49.890;5.930;2023-09-08T06:32:32;7.13;;;4.88;;
49840;SDS011;35738;49.890;5.930;2023-09-08T06:34:58;6.45;;;5.30;;
49840;SDS011;35738;49.890;5.930;2023-09-08T06:37:25;5.32;;;4.82;;
49840;SDS011;35738;49.890;5.930;2023-09-08T06:39:53;5.35;;;4.38;;
49840;SDS011;35738;49.890;5.930;2023-09-08T06:42:20;5.97;;;4.90;;
49840;SDS011;35738;49.890;5.930;2023-09-08T06:44:47;5.22;;;4.82;;
49840;SDS011;35738;49.890;5.930;2023-09-08T06:47:13;5.40;;;4.90;;
49840;SDS011;35738;49.890;5.930;2023-09-08T06:49:39;6.78;;;4.97;;
49840;SDS011;35738;49.890;5.930;2023-09-08T06:52:07;5.28;;;4.38;;
49840;SDS011;35738;49.890;5.930;2023-09-08T06:54:34;5.80;;;5.03;;
49840;SDS011;35738;49.890;5.930;2023-09-08T06:57:00;5.30;;;4.65;;
49840;SDS011;35738;49.890;5.930;2023-09-08T06:59:26;6.57;;;4.90;;
49840;SDS011;35738;49.890;5.930;2023-09-08T07:01:53;8.40;;;4.95;;
49840;SDS011;35738;49.890;5.930;2023-09-08T07:04:20;4.80;;;4.35;;
49840;SDS011;35738;49.890;5.930;2023-09-08T07:06:46;9.13;;;4.95;;
49840;SDS011;35738;49.890;5.930;2023-09-08T07:09:13;5.13;;;4.60;;
49840;SDS011;35738;49.890;5.930;2023-09-08T07:11:39;5.00;;;4.50;;
49840;SDS011;35738;49.890;5.930;2023-09-08T07:14:05;5.32;;;4.82;;
49840;SDS011;35738;49.890;5.930;2023-09-08T07:16:32;5.32;;;4.82;;
49840;SDS011;35738;49.890;5.930;2023-09-08T07:18:58;6.65;;;5.18;;
49840;SDS011;35738;49.890;5.930;2023-09-08T07:21:27;6.80;;;5.00;;
49840;SDS011;35738;49.890;5.930;2023-09-08T07:23:53;7.40;;;5.03;;
49840;SDS011;35738;49.890;5.930;2023-09-08T07:26:22;7.68;;;5.35;;
49840;SDS011;35738;49.890;5.930;2023-09-08T07:28:49;5.53;;;4.90;;
49840;SDS011;35738;49.890;5.930;2023-09-08T07:31:15;5.35;;;4.78;;
49840;SDS011;35738;49.890;5.930;2023-09-08T07:33:42;7.38;;;4.45;;
49840;SDS011;35738;49.890;5.930;2023-09-08T07:36:08;7.97;;;5.10;;
49840;SDS011;35738;49.890;5.930;2023-09-08T07:38:35;7.57;;;4.70;;
49840;SDS011;35738;49.890;5.930;2023-09-08T07:41:03;5.25;;;4.65;;
49840;SDS011;35738;49.890;5.930;2023-09-08T07:43:30;7.57;;;4.70;;
49840;SDS011;35738;49.890;5.930;2023-09-08T07:45:56;5.38;;;4.85;;
49840;SDS011;35738;49.890;5.930;2023-09-08T07:48:23;5.57;;;4.93;;
49840;SDS011;35738;49.890;5.930;2023-09-08T07:50:49;7.85;;;4.93;;
49840;SDS011;35738;49.890;5.930;2023-09-08T07:53:16;5.40;;;4.90;;
49840;SDS011;35738;49.890;5.930;2023-09-08T07:55:42;5.35;;;4.80;;
49840;SDS011;35738;49.890;5.930;2023-09-08T07:58:09;6.38;;;4.85;;
49840;SDS011;35738;49.890;5.930;2023-09-08T08:00:36;5.70;;;5.15;;
49840;SDS011;35738;49.890;5.930;2023-09-08T08:03:02;5.57;;;4.47;;
49840;SDS011;35738;49.890;5.930;2023-09-08T08:05:29;6.07;;;4.70;;
49840;SDS011;35738;49.890;5.930;2023-09-08T08:07:56;7.07;;;5.07;;
49840;SDS011;35738;49.890;5.930;2023-09-08T08:10:22;7.13;;;5.88;;
49840;SDS011;35738;49.890;5.930;2023-09-08T08:12:48;6.53;;;5.25;;
49840;SDS011;35738;49.890;5.930;2023-09-08T08:15:15;6.07;;;5.00;;
49840;SDS011;35738;49.890;5.930;2023-09-08T08:17:41;6.75;;;5.22;;
49840;SDS011;35738;49.890;5.930;2023-09-08T08:20:09;5.65;;;5.15;;
49840;SDS011;35738;49.890;5.930;2023-09-08T08:22:46;6.25;;;5.15;;
49840;SDS011;35738;49.890;5.930;2023-09-08T08:25:13;7.22;;;4.90;;
49840;SDS011;35738;49.890;5.930;2023-09-08T08:27:39;5.30;;;4.80;;
49840;SDS011;35738;49.890;5.930;2023-09-08T08:30:06;5.80;;;5.20;;
49840;SDS011;35738;49.890;5.930;2023-09-08T08:32:34;6.35;;;5.65;;
49840;SDS011;35738;49.890;5.930;2023-09-08T08:35:01;5.30;;;4.80;;
49840;SDS011;35738;49.890;5.930;2023-09-08T08:37:27;7.95;;;6.03;;
49840;SDS011;35738;49.890;5.930;2023-09-08T08:39:53;6.25;;;4.80;;
49840;SDS011;35738;49.890;5.930;2023-09-08T08:42:20;8.73;;;5.57;;
49840;SDS011;35738;49.890;5.930;2023-09-08T08:44:48;6.55;;;5.53;;
49840;SDS011;35738;49.890;5.930;2023-09-08T08:47:16;5.55;;;5.05;;
49840;SDS011;35738;49.890;5.930;2023-09-08T08:49:44;6.18;;;5.50;;
49840;SDS011;35738;49.890;5.930;2023-09-08T08:52:13;8.13;;;5.55;;
49840;SDS011;35738;49.890;5.930;2023-09-08T08:54:40;5.38;;;4.95;;
49840;SDS011;35738;49.890;5.930;2023-09-08T08:57:08;7.07;;;5.28;;
49840;SDS011;35738;49.890;5.930;2023-09-08T08:59:35;5.75;;;5.25;;
49840;SDS011;35738;49.890;5.930;2023-09-08T09:02:03;6.25;;;5.60;;
49840;SDS011;35738;49.890;5.930;2023-09-08T09:04:30;5.85;;;5.03;;
49840;SDS011;35738;49.890;5.930;2023-09-08T09:06:57;5.75;;;5.05;;
49840;SDS011;35738;49.890;5.930;2023-09-08T09:09:24;6.47;;;5.80;;
49840;SDS011;35738;49.890;5.930;2023-09-08T09:11:51;6.53;;;5.93;;
49840;SDS011;35738;49.890;5.930;2023-09-08T09:14:18;6.13;;;5.50;;
49840;SDS011;35738;49.890;5.930;2023-09-08T09:16:45;6.95;;;5.25;;
49840;SDS011;35738;49.890;5.930;2023-09-08T09:19:20;6.40;;;5.80;;
49840;SDS011;35738;49.890;5.930;2023-09-08T09:21:54;8.45;;;6.35;;
49840;SDS011;35738;49.890;5.930;2023-09-08T09:24:28;6.65;;;5.80;;
49840;SDS011;35738;49.890;5.930;2023-09-08T09:27:00;5.68;;;5.07;;
49840;SDS011;35738;49.890;5.930;2023-09-08T09:29:28;7.60;;;5.90;;
49840;SDS011;35738;49.890;5.930;2023-09-08T09:31:58;6.57;;;6.03;;
49840;SDS011;35738;49.890;5.930;2023-09-08T09:34:29;6.50;;;5.90;;
49840;SDS011;35738;49.890;5.930;2023-09-08T09:36:56;7.03;;;5.97;;
49840;SDS011;35738;49.890;5.930;2023-09-08T09:39:24;6.32;;;5.72;;
49840;SDS011;35738;49.890;5.930;2023-09-08T09:41:55;7.38;;;6.28;;
49840;SDS011;35738;49.890;5.930;2023-09-08T09:44:23;7.00;;;6.30;;
49840;SDS011;35738;49.890;5.930;2023-09-08T09:46:53;9.80;;;6.03;;
49840;SDS011;35738;49.890;5.930;2023-09-08T09:49:20;8.35;;;5.90;;
49840;SDS011;35738;49.890;5.930;2023-09-08T09:51:47;6.93;;;5.88;;
49840;SDS011;35738;49.890;5.930;2023-09-08T09:54:15;7.28;;;6.07;;
49840;SDS011;35738;49.890;5.930;2023-09-08T09:56:43;11.13;;;6.45;;
49840;SDS011;35738;49.890;5.930;2023-09-08T09:59:13;8.98;;;6.65;;
49840;SDS011;35738;49.890;5.930;2023-09-08T10:01:40;6.75;;;6.05;;
49840;SDS011;35738;49.890;5.930;2023-09-08T10:04:08;13.20;;;6.80;;
49840;SDS011;35738;49.890;5.930;2023-09-08T10:06:39;6.45;;;5.82;;
49840;SDS011;35738;49.890;5.930;2023-09-08T10:09:06;10.70;;;7.00;;
49840;SDS011;35738;49.890;5.930;2023-09-08T10:11:48;8.07;;;6.63;;
49840;SDS011;35738;49.890;5.930;2023-09-08T10:14:16;6.80;;;6.10;;
49840;SDS011;35738;49.890;5.930;2023-09-08T10:16:45;5.95;;;5.43;;
49840;SDS011;35738;49.890;5.930;2023-09-08T10:19:16;6.65;;;5.50;;
49840;SDS011;35738;49.890;5.930;2023-09-08T10:21:45;6.10;;;5.50;;
49840;SDS011;35738;49.890;5.930;2023-09-08T10:24:15;7.55;;;5.90;;
49840;SDS011;35738;49.890;5.930;2023-09-08T10:27:05;10.02;;;6.45;;
49840;SDS011;35738;49.890;5.930;2023-09-08T10:29:35;7.03;;;6.05;;
49840;SDS011;35738;49.890;5.930;2023-09-08T10:32:01;11.68;;;6.97;;
49840;SDS011;35738;49.890;5.930;2023-09-08T10:34:30;6.93;;;5.97;;
49840;SDS011;35738;49.890;5.930;2023-09-08T10:36:57;9.98;;;6.60;;
49840;SDS011;35738;49.890;5.930;2023-09-08T10:39:27;9.65;;;6.80;;
49840;SDS011;35738;49.890;5.930;2023-09-08T10:47:25;8.57;;;6.35;;
49840;SDS011;35738;49.890;5.930;2023-09-08T10:49:52;9.02;;;5.95;;
49840;SDS011;35738;49.890;5.930;2023-09-08T10:52:26;8.40;;;6.07;;
49840;SDS011;35738;49.890;5.930;2023-09-08T10:54:54;6.68;;;6.00;;
49840;SDS011;35738;49.890;5.930;2023-09-08T10:57:22;5.38;;;4.97;;
49840;SDS011;35738;49.890;5.930;2023-09-08T10:59:53;7.47;;;6.40;;
49840;SDS011;35738;49.890;5.930;2023-09-08T11:02:37;6.43;;;5.38;;
49840;SDS011;35738;49.890;5.930;2023-09-08T11:05:06;5.68;;;4.80;;
49840;SDS011;35738;49.890;5.930;2023-09-08T11:07:35;6.38;;;5.43;;
49840;SDS011;35738;49.890;5.930;2023-09-08T11:10:03;8.02;;;5.65;;
49840;SDS011;35738;49.890;5.930;2023-09-08T11:12:31;5.72;;;5.22;;
49840;SDS011;35738;49.890;5.930;2023-09-08T11:14:58;6.30;;;5.40;;
49840;SDS011;35738;49.890;5.930;2023-09-08T11:17:32;6.20;;;5.60;;
49840;SDS011;35738;49.890;5.930;2023-09-08T11:20:01;6.38;;;4.80;;
49840;SDS011;35738;49.890;5.930;2023-09-08T11:22:35;5.05;;;4.65;;
49840;SDS011;35738;49.890;5.930;2023-09-08T11:25:03;7.18;;;4.63;;
49840;SDS011;35738;49.890;5.930;2023-09-08T11:27:32;10.32;;;6.95;;
49840;SDS011;35738;49.890;5.930;2023-09-08T11:29:59;5.43;;;4.95;;
49840;SDS011;35738;49.890;5.930;2023-09-08T11:32:33;6.03;;;4.72;;
49840;SDS011;35738;49.890;5.930;2023-09-08T11:35:04;6.25;;;4.75;;
49840;SDS011;35738;49.890;5.930;2023-09-08T11:37:38;6.07;;;4.97;;
49840;SDS011;35738;49.890;5.930;2023-09-08T11:40:07;5.57;;;4.70;;
49840;SDS011;35738;49.890;5.930;2023-09-08T11:42:42;4.65;;;4.25;;
49840;SDS011;35738;49.890;5.930;2023-09-08T11:45:14;4.90;;;4.20;;
49840;SDS011;35738;49.890;5.930;2023-09-08T11:47:47;7.05;;;4.65;;
49840;SDS011;35738;49.890;5.930;2023-09-08T11:50:15;8.27;;;4.40;;
49840;SDS011;35738;49.890;5.930;2023-09-08T11:52:45;4.60;;;4.20;;
49840;SDS011;35738;49.890;5.930;2023-09-08T11:55:14;5.75;;;4.90;;
49840;SDS011;35738;49.890;5.930;2023-09-08T11:57:41;7.07;;;4.30;;
49840;SDS011;35738;49.890;5.930;2023-09-08T12:00:09;11.30;;;9.75;;
49840;SDS011;35738;49.890;5.930;2023-09-08T12:02:40;6.53;;;5.13;;
49840;SDS011;35738;49.890;5.930;2023-09-08T12:05:13;6.65;;;4.75;;
49840;SDS011;35738;49.890;5.930;2023-09-08T12:07:47;7.18;;;4.93;;
49840;SDS011;35738;49.890;5.930;2023-09-08T12:10:15;5.47;;;4.60;;
49840;SDS011;35738;49.890;5.930;2023-09-08T12:12:44;4.65;;;4.10;;
49840;SDS011;35738;49.890;5.930;2023-09-08T12:15:28;5.57;;;4.32;;
49840;SDS011;35738;49.890;5.930;2023-09-08T12:18:09;5.13;;;4.70;;
49840;SDS011;35738;49.890;5.930;2023-09-08T12:20:37;4.80;;;4.43;;
49840;SDS011;35738;49.890;5.930;2023-09-08T12:23:05;7.13;;;4.90;;
49840;SDS011;35738;49.890;5.930;2023-09-08T12:25:43;4.78;;;4.38;;
49840;SDS011;35738;49.890;5.930;2023-09-08T12:28:15;6.65;;;4.53;;
49840;SDS011;35738;49.890;5.930;2023-09-08T12:30:43;4.68;;;4.28;;
49840;SDS011;35738;49.890;5.930;2023-09-08T12:33:11;4.97;;;4.45;;
49840;SDS011;35738;49.890;5.930;2023-09-08T12:35:42;5.10;;;4.50;;
49840;SDS011;35738;49.890;5.930;2023-09-08T12:38:09;5.53;;;4.40;;
49840;SDS011;35738;49.890;5.930;2023-09-08T12:40:36;4.05;;;3.75;;
49840;SDS011;35738;49.890;5.930;2023-09-08T12:43:03;4.03;;;3.53;;
49840;SDS011;35738;49.890;5.930;2023-09-08T12:45:50;3.90;;;3.50;;
49840;SDS011;35738;49.890;5.930;2023-09-08T12:48:16;4.78;;;3.78;;
49840;SDS011;35738;49.890;5.930;2023-09-08T12:50:43;5.63;;;4.00;;
49840;SDS011;35738;49.890;5.930;2023-09-08T12:53:09;4.80;;;3.83;;
49840;SDS011;35738;49.890;5.930;2023-09-08T12:55:36;4.43;;;3.90;;
49840;SDS011;35738;49.890;5.930;2023-09-08T12:58:02;4.00;;;3.60;;
49840;SDS011;35738;49.890;5.930;2023-09-08T13:00:29;4.55;;;3.70;;
49840;SDS011;35738;49.890;5.930;2023-09-08T13:02:56;4.53;;;3.78;;
49840;SDS011;35738;49.890;5.930;2023-09-08T13:05:23;4.47;;;4.07;;
49840;SDS011;35738;49.890;5.930;2023-09-08T13:07:49;5.57;;;3.97;;
49840;SDS011;35738;49.890;5.930;2023-09-08T13:10:16;4.57;;;3.40;;
49840;SDS011;35738;49.890;5.930;2023-09-08T13:12:42;4.13;;;3.70;;
49840;SDS011;35738;49.890;5.930;2023-09-08T13:15:09;5.75;;;4.10;;
49840;SDS011;35738;49.890;5.930;2023-09-08T13:17:35;4.30;;;3.72;;
49840;SDS011;35738;49.890;5.930;2023-09-08T13:20:02;3.97;;;3.40;;
49840;SDS011;35738;49.890;5.930;2023-09-08T13:22:29;4.15;;;3.75;;
49840;SDS011;35738;49.890;5.930;2023-09-08T13:24:55;6.28;;;3.38;;
49840;SDS011;35738;49.890;5.930;2023-09-08T13:27:22;3.65;;;3.22;;
49840;SDS011;35738;49.890;5.930;2023-09-08T13:29:48;3.67;;;3.38;;
49840;SDS011;35738;49.890;5.930;2023-09-08T13:32:15;5.43;;;3.60;;
49840;SDS011;35738;49.890;5.930;2023-09-08T13:34:41;4.40;;;3.33;;
49840;SDS011;35738;49.890;5.930;2023-09-08T13:37:10;4.57;;;3.47;;
49840;SDS011;35738;49.890;5.930;2023-09-08T13:39:36;3.72;;;3.42;;
49840;SDS011;35738;49.890;5.930;2023-09-08T13:42:03;3.60;;;3.30;;
49840;SDS011;35738;49.890;5.930;2023-09-08T13:44:30;3.88;;;3.53;;
49840;SDS011;35738;49.890;5.930;2023-09-08T13:46:56;3.72;;;3.30;;
49840;SDS011;35738;49.890;5.930;2023-09-08T13:49:23;3.17;;;2.95;;
49840;SDS011;35738;49.890;5.930;2023-09-08T13:51:52;3.83;;;3.47;;
49840;SDS011;35738;49.890;5.930;2023-09-08T13:54:22;7.82;;;3.58;;
49840;SDS011;35738;49.890;5.930;2023-09-08T13:56:57;4.55;;;3.30;;
49840;SDS011;35738;49.890;5.930;2023-09-08T13:59:32;5.55;;;3.42;;
49840;SDS011;35738;49.890;5.930;2023-09-08T14:02:02;4.63;;;3.13;;
49840;SDS011;35738;49.890;5.930;2023-09-08T14:04:49;5.07;;;3.20;;
49840;SDS011;35738;49.890;5.930;2023-09-08T14:07:21;5.28;;;3.10;;
49840;SDS011;35738;49.890;5.930;2023-09-08T14:09:50;4.38;;;3.20;;
49840;SDS011;35738;49.890;5.930;2023-09-08T14:12:30;5.82;;;3.30;;
49840;SDS011;35738;49.890;5.930;2023-09-08T14:15:01;3.50;;;3.10;;
49840;SDS011;35738;49.890;5.930;2023-09-08T14:17:28;3.65;;;3.10;;
49840;SDS011;35738;49.890;5.930;2023-09-08T14:19:55;4.10;;;3.40;;
49840;SDS011;35738;49.890;5.930;2023-09-08T14:22:21;3.80;;;2.92;;
49840;SDS011;35738;49.890;5.930;2023-09-08T14:24:48;4.93;;;3.40;;
49840;SDS011;35738;49.890;5.930;2023-09-08T14:27:14;4.10;;;3.70;;
49840;SDS011;35738;49.890;5.930;2023-09-08T14:29:41;3.63;;;3.33;;
49840;SDS011;35738;49.890;5.930;2023-09-08T14:32:07;4.43;;;3.50;;
49840;SDS011;35738;49.890;5.930;2023-09-08T14:34:34;4.25;;;3.60;;
49840;SDS011;35738;49.890;5.930;2023-09-08T14:37:00;4.13;;;3.60;;
49840;SDS011;35738;49.890;5.930;2023-09-08T14:39:29;4.18;;;3.47;;
49840;SDS011;35738;49.890;5.930;2023-09-08T14:41:56;3.97;;;3.60;;
49840;SDS011;35738;49.890;5.930;2023-09-08T14:44:22;5.80;;;3.67;;
49840;SDS011;35738;49.890;5.930;2023-09-08T14:46:50;5.45;;;3.60;;
49840;SDS011;35738;49.890;5.930;2023-09-08T14:49:17;4.43;;;3.70;;
49840;SDS011;35738;49.890;5.930;2023-09-08T14:51:43;4.82;;;3.47;;
49840;SDS011;35738;49.890;5.930;2023-09-08T14:54:10;7.03;;;3.85;;
49840;SDS011;35738;49.890;5.930;2023-09-08T14:56:37;3.47;;;3.28;;
49840;SDS011;35738;49.890;5.930;2023-09-08T14:59:03;4.55;;;3.63;;
49840;SDS011;35738;49.890;5.930;2023-09-08T15:01:29;3.55;;;3.25;;